Time;durP1;ratioP1;P1;durP2;ratioP2;P2;SDS_P1;SDS_P2;PMS_P1;PMS_P2;Temp;Humidity;BMP_temperature;BMP_pressure;BME280_temperature;BME280_humidity;BME280_pressure;Samples;Min_cycle;Max_cycle;Signal;HPM_P1;HPM_P2
2022/09/27 00:00:33;;;;;;;3.05;0.80;;;10.60;99.90;;;;;;5077258;28;20032;-78
2022/09/27 00:02:58;;;;;;;5.40;1.00;;;11.10;99.90;;;;;;5076970;28;20036;-79
2022/09/27 00:05:24;;;;;;;3.15;0.70;;;10.50;99.90;;;;;;5040457;28;20097;-79
2022/09/27 00:07:50;;;;;;;3.10;0.65;;;10.40;99.90;;;;;;5056522;28;20048;-79
2022/09/27 00:10:16;;;;;;;3.85;0.77;;;10.40;99.90;;;;;;5045077;28;20046;-79
2022/09/27 00:12:41;;;;;;;5.05;0.70;;;10.40;99.90;;;;;;5078321;28;20082;-77
2022/09/27 00:15:08;;;;;;;4.43;0.77;;;10.60;99.90;;;;;;5060759;28;20046;-79
2022/09/27 00:17:35;;;;;;;1.50;0.70;;;10.30;99.90;;;;;;5061681;28;20653;-78
2022/09/27 00:20:02;;;;;;;4.65;0.80;;;10.40;99.90;;;;;;5077737;28;20044;-78
2022/09/27 00:22:27;;;;;;;4.00;0.95;;;10.30;99.90;;;;;;5044246;28;20050;-78
2022/09/27 00:24:53;;;;;;;1.85;0.82;;;10.30;99.90;;;;;;5027650;28;20036;-79
2022/09/27 00:27:19;;;;;;;4.93;0.65;;;10.30;99.90;;;;;;5076959;28;20488;-79
2022/09/27 00:29:46;;;;;;;1.38;0.80;;;10.30;99.90;;;;;;5061341;28;20377;-81
2022/09/27 00:32:13;;;;;;;5.22;0.70;;;10.30;99.90;;;;;;5061767;28;20036;-79
2022/09/27 00:34:40;;;;;;;3.00;0.50;;;10.30;99.90;;;;;;5044769;28;20081;-79
2022/09/27 00:37:06;;;;;;;2.80;0.88;;;10.30;99.90;;;;;;5076229;28;20157;-79
2022/09/27 00:39:32;;;;;;;4.53;0.80;;;10.30;99.90;;;;;;5077484;28;20051;-79
2022/09/27 00:41:58;;;;;;;3.47;0.63;;;10.30;99.90;;;;;;5061142;28;20036;-79
2022/09/27 00:44:27;;;;;;;4.90;0.68;;;10.30;99.90;;;;;;5073805;28;20083;-79
2022/09/27 00:47:07;;;;;;;1.95;0.80;;;10.40;99.90;;;;;;5066897;28;20416;-79
2022/09/27 00:49:57;;;;;;;2.63;0.60;;;10.30;99.90;;;;;;5060039;28;20134;-79
2022/09/27 00:52:45;;;;;;;3.05;0.82;;;10.30;99.90;;;;;;5056751;28;20048;-79
2022/09/27 00:55:16;;;;;;;0.63;0.32;;;10.20;99.90;;;;;;5065290;28;20077;-80
2022/09/27 00:57:44;;;;;;;2.83;0.50;;;10.20;99.90;;;;;;5076748;28;20036;-79
2022/09/27 01:00:12;;;;;;;1.80;0.75;;;10.20;99.90;;;;;;5074817;28;20083;-79
2022/09/27 01:02:41;;;;;;;4.55;0.68;;;10.20;99.90;;;;;;5072763;28;20028;-79
2022/09/27 01:05:09;;;;;;;4.72;0.73;;;10.10;99.90;;;;;;5046236;28;20049;-79
2022/09/27 01:07:35;;;;;;;2.33;0.77;;;10.10;99.90;;;;;;5065995;28;20090;-79
2022/09/27 01:10:01;;;;;;;4.95;0.82;;;10.10;99.90;;;;;;5058141;28;20037;-78
2022/09/27 01:12:32;;;;;;;2.45;0.70;;;10.10;99.90;;;;;;5073121;28;20039;-79
2022/09/27 01:15:26;;;;;;;3.42;0.50;;;10.10;99.90;;;;;;5057133;28;20069;-79
2022/09/27 01:18:27;;;;;;;4.18;0.65;;;10.10;99.90;;;;;;5058957;28;20071;-79
2022/09/27 01:21:17;;;;;;;5.30;0.63;;;10.10;99.90;;;;;;5044547;28;20477;-79
2022/09/27 01:24:11;;;;;;;2.47;0.55;;;10.10;99.90;;;;;;5039365;28;20373;-79
2022/09/27 01:26:55;;;;;;;5.18;1.00;;;10.10;99.90;;;;;;5064098;28;20522;-79
2022/09/27 01:29:54;;;;;;;5.50;0.93;;;10.00;99.90;;;;;;5065668;28;21588;-80
2022/09/27 01:32:46;;;;;;;4.63;0.70;;;10.00;99.90;;;;;;5086812;28;20039;-80
2022/09/27 01:35:19;;;;;;;2.72;0.50;;;10.00;99.90;;;;;;5058829;28;20119;-79
2022/09/27 01:37:56;;;;;;;2.72;0.65;;;10.00;99.90;;;;;;5065917;28;20039;-79
2022/09/27 01:40:40;;;;;;;2.42;0.70;;;10.00;99.90;;;;;;5056406;28;20042;-79
2022/09/27 01:43:11;;;;;;;4.70;0.47;;;10.00;99.90;;;;;;5074989;28;20139;-79
2022/09/27 01:45:43;;;;;;;3.50;0.60;;;10.00;99.90;;;;;;5040536;28;20486;-80
2022/09/27 01:48:16;;;;;;;2.30;0.60;;;10.00;99.90;;;;;;5050266;28;20040;-79
2022/09/27 01:50:47;;;;;;;5.80;0.85;;;10.10;99.90;;;;;;5056108;28;20505;-79
2022/09/27 01:53:40;;;;;;;3.10;1.10;;;10.30;99.90;;;;;;5047980;28;20040;-79
2022/09/27 01:56:17;;;;;;;6.72;1.38;;;10.00;99.90;;;;;;5047095;28;20040;-79
2022/09/27 01:58:52;;;;;;;1.90;0.60;;;10.00;99.90;;;;;;5074412;28;20073;-79
2022/09/27 02:01:20;;;;;;;3.65;0.60;;;10.00;99.90;;;;;;5053090;28;20082;-79
2022/09/27 02:03:49;;;;;;;5.85;0.80;;;10.00;99.90;;;;;;5056487;28;20036;-78
2022/09/27 02:06:22;;;;;;;4.65;0.70;;;10.00;99.90;;;;;;5050007;28;20071;-79
2022/09/27 02:09:02;;;;;;;3.38;0.70;;;10.00;99.90;;;;;;5063468;28;20044;-79
2022/09/27 02:11:28;;;;;;;3.58;0.70;;;10.00;99.90;;;;;;5074695;28;20384;-79
2022/09/27 02:14:12;;;;;;;5.47;1.00;;;10.00;99.90;;;;;;5047997;28;20040;-79
2022/09/27 02:16:46;;;;;;;6.75;1.00;;;10.00;99.90;;;;;;5053438;28;20032;-79
2022/09/27 02:19:39;;;;;;;3.70;0.80;;;9.90;99.90;;;;;;5075933;28;20074;-80
2022/09/27 02:22:36;;;;;;;3.90;0.60;;;9.90;99.90;;;;;;5072049;28;20504;-80
2022/09/27 02:25:28;;;;;;;1.48;0.45;;;9.90;99.90;;;;;;5071848;28;20081;-79
2022/09/27 02:28:05;;;;;;;2.70;0.73;;;9.90;99.90;;;;;;5070216;28;20473;-79
2022/09/27 02:30:31;;;;;;;4.15;0.60;;;9.90;99.90;;;;;;5077405;28;20048;-79
2022/09/27 02:32:57;;;;;;;6.22;0.70;;;9.90;99.90;;;;;;5060260;28;20040;-78
2022/09/27 02:35:31;;;;;;;8.57;0.85;;;9.90;99.90;;;;;;5059798;28;20047;-79
2022/09/27 02:37:57;;;;;;;2.63;0.60;;;9.90;99.90;;;;;;5075817;28;20051;-79
2022/09/27 02:40:25;;;;;;;2.53;0.70;;;9.90;99.90;;;;;;5072964;28;20094;-79
2022/09/27 02:42:51;;;;;;;5.60;0.85;;;9.90;99.90;;;;;;5042879;28;20041;-79
2022/09/27 02:45:19;;;;;;;1.15;0.30;;;9.80;99.90;;;;;;5042504;28;20048;-78
2022/09/27 02:48:00;;;;;;;4.22;0.82;;;9.90;99.90;;;;;;5043110;28;20044;-79
2022/09/27 02:50:58;;;;;;;2.95;0.55;;;9.80;99.90;;;;;;5042069;28;20435;-78
2022/09/27 02:53:48;;;;;;;4.15;0.60;;;9.80;99.90;;;;;;5035600;28;20072;-79
2022/09/27 02:56:20;;;;;;;3.90;0.70;;;9.80;99.90;;;;;;5060386;28;20040;-78
2022/09/27 02:58:52;;;;;;;3.13;0.57;;;9.90;99.90;;;;;;5059656;28;20044;-78
2022/09/27 03:01:25;;;;;;;1.85;0.50;;;9.80;99.90;;;;;;5060318;28;20063;-80
2022/09/27 03:03:53;;;;;;;2.58;0.80;;;9.80;99.90;;;;;;5060131;28;20081;-79
2022/09/27 03:06:22;;;;;;;3.00;0.50;;;9.80;99.90;;;;;;5059746;28;20040;-79
2022/09/27 03:08:48;;;;;;;3.63;0.70;;;9.80;99.90;;;;;;5042839;28;20041;-78
2022/09/27 03:11:14;;;;;;;4.57;0.77;;;9.80;99.90;;;;;;5059957;28;20076;-78
2022/09/27 03:13:41;;;;;;;3.20;0.63;;;9.80;99.90;;;;;;5064189;28;20043;-79
2022/09/27 03:16:06;;;;;;;2.40;0.35;;;9.70;99.90;;;;;;5068440;28;20052;-80
2022/09/27 03:18:32;;;;;;;0.98;0.35;;;9.80;99.90;;;;;;5069248;28;20037;-79
2022/09/27 03:20:58;;;;;;;1.95;0.60;;;9.70;99.90;;;;;;5044626;28;20063;-79
2022/09/27 03:23:24;;;;;;;2.90;0.40;;;9.70;99.90;;;;;;5058550;28;20044;-79
2022/09/27 03:25:50;;;;;;;1.95;0.60;;;9.80;99.90;;;;;;5050256;28;20037;-79
2022/09/27 03:28:17;;;;;;;3.08;0.50;;;9.80;99.90;;;;;;5022340;28;20048;-81
2022/09/27 03:30:44;;;;;;;4.28;0.95;;;9.80;99.90;;;;;;5022328;28;20099;-79
2022/09/27 03:33:10;;;;;;;4.25;0.70;;;9.70;99.90;;;;;;5031535;28;20476;-80
2022/09/27 03:35:36;;;;;;;3.55;0.50;;;9.70;99.90;;;;;;5058485;28;20048;-78
2022/09/27 03:38:02;;;;;;;3.22;0.65;;;9.70;99.90;;;;;;5008695;28;20449;-79
2022/09/27 03:40:28;;;;;;;3.25;0.52;;;9.70;99.90;;;;;;5058860;28;20145;-79
2022/09/27 03:42:54;;;;;;;3.13;0.70;;;9.70;99.90;;;;;;5043719;28;20079;-78
2022/09/27 03:45:20;;;;;;;1.98;1.15;;;9.90;99.90;;;;;;5061454;28;20047;-79
2022/09/27 03:47:46;;;;;;;5.00;0.73;;;9.70;99.90;;;;;;5060635;28;20040;-78
2022/09/27 03:50:13;;;;;;;1.83;0.60;;;9.00;99.90;;;;;;5012407;28;20040;-78
2022/09/27 03:52:39;;;;;;;4.47;0.52;;;9.70;99.90;;;;;;5045580;28;20036;-78
2022/09/27 03:55:05;;;;;;;4.63;0.68;;;9.60;99.90;;;;;;5061953;28;20080;-79
2022/09/27 03:57:31;;;;;;;2.97;0.60;;;9.60;99.90;;;;;;5062003;28;20043;-80
2022/09/27 03:59:58;;;;;;;2.90;0.68;;;9.60;99.90;;;;;;5077481;28;20032;-79
2022/09/27 04:02:25;;;;;;;2.70;0.60;;;9.60;99.90;;;;;;5079018;28;20070;-82
2022/09/27 04:04:50;;;;;;;4.15;0.70;;;9.60;99.90;;;;;;5078816;28;20553;-82
2022/09/27 04:07:16;;;;;;;0.55;0.30;;;9.50;99.90;;;;;;5031863;28;20127;-81
2022/09/27 04:09:43;;;;;;;1.88;0.47;;;9.60;99.90;;;;;;5079473;28;20036;-82
2022/09/27 04:12:09;;;;;;;3.85;0.60;;;9.50;99.90;;;;;;5062669;28;20040;-81
2022/09/27 04:14:35;;;;;;;2.17;0.60;;;9.50;99.90;;;;;;5079286;28;20040;-81
2022/09/27 04:17:00;;;;;;;2.65;0.63;;;9.50;99.90;;;;;;5061753;28;20044;-80
2022/09/27 04:19:26;;;;;;;1.60;0.57;;;9.50;99.90;;;;;;5073204;28;20040;-82
2022/09/27 04:21:52;;;;;;;2.97;0.65;;;9.40;99.90;;;;;;5057298;28;20090;-82
2022/09/27 04:24:18;;;;;;;7.32;0.70;;;9.40;99.90;;;;;;5062122;28;20047;-82
2022/09/27 04:26:43;;;;;;;1.90;0.50;;;9.40;99.90;;;;;;5077344;28;20078;-82
2022/09/27 04:29:09;;;;;;;3.80;0.45;;;9.40;99.90;;;;;;5062239;28;20044;-82
2022/09/27 04:31:36;;;;;;;4.30;0.60;;;9.40;99.90;;;;;;5076286;28;20039;-82
2022/09/27 04:34:06;;;;;;;1.92;0.55;;;9.40;99.90;;;;;;5044588;28;20044;-82
2022/09/27 04:36:32;;;;;;;3.95;0.73;;;9.30;99.90;;;;;;5077430;28;20037;-81
2022/09/27 04:39:00;;;;;;;5.25;0.80;;;9.30;99.90;;;;;;5078606;28;20541;-82
2022/09/27 04:41:27;;;;;;;2.70;0.77;;;9.30;99.90;;;;;;5061768;28;20052;-81
2022/09/27 04:43:57;;;;;;;4.88;0.70;;;9.30;99.90;;;;;;5077292;28;20145;-82
2022/09/27 04:46:23;;;;;;;4.07;0.70;;;9.20;99.90;;;;;;5060858;28;20089;-82
2022/09/27 04:48:49;;;;;;;2.85;0.77;;;9.30;99.90;;;;;;5060642;28;20036;-82
2022/09/27 04:51:16;;;;;;;2.97;1.15;;;9.20;99.90;;;;;;5079003;28;20040;-82
2022/09/27 04:53:46;;;;;;;5.75;0.95;;;9.20;99.90;;;;;;5078089;28;20039;-82
2022/09/27 04:56:12;;;;;;;5.65;0.57;;;9.20;99.90;;;;;;5061783;28;20036;-82
2022/09/27 04:58:38;;;;;;;4.32;0.52;;;9.20;99.90;;;;;;5061883;28;20036;-81
2022/09/27 05:01:04;;;;;;;5.00;1.30;;;9.20;99.90;;;;;;5062578;28;20051;-82
2022/09/27 05:03:31;;;;;;;3.10;0.60;;;9.30;99.90;;;;;;5056308;28;20113;-82
2022/09/27 05:05:57;;;;;;;1.90;0.88;;;9.20;99.90;;;;;;5058322;28;20040;-82
2022/09/27 05:08:24;;;;;;;1.77;0.55;;;9.20;99.90;;;;;;5076319;28;20070;-81
2022/09/27 05:10:50;;;;;;;2.92;1.00;;;9.10;99.90;;;;;;5077679;28;20067;-82
2022/09/27 05:13:17;;;;;;;3.97;1.00;;;9.10;99.90;;;;;;5060886;28;20039;-82
2022/09/27 05:15:43;;;;;;;3.53;0.70;;;9.10;99.90;;;;;;5076986;28;20550;-81
2022/09/27 05:18:09;;;;;;;3.70;0.80;;;9.10;99.90;;;;;;5059062;28;20036;-81
2022/09/27 05:20:35;;;;;;;3.63;0.70;;;9.00;99.90;;;;;;5090494;28;20090;-80
2022/09/27 05:23:03;;;;;;;2.28;0.70;;;9.00;99.90;;;;;;5092258;28;20457;-81
2022/09/27 05:25:30;;;;;;;6.43;1.02;;;9.20;99.90;;;;;;5060463;28;20036;-81
2022/09/27 05:27:57;;;;;;;7.13;0.95;;;8.90;99.90;;;;;;5055804;28;20044;-82
2022/09/27 05:30:23;;;;;;;5.93;0.77;;;9.70;99.90;;;;;;5077044;28;20044;-81
2022/09/27 05:32:49;;;;;;;5.38;0.80;;;8.90;99.90;;;;;;5077442;28;20044;-81
2022/09/27 05:35:18;;;;;;;4.22;0.98;;;8.80;99.90;;;;;;5060290;28;20043;-81
2022/09/27 05:37:51;;;;;;;4.68;0.80;;;8.90;99.90;;;;;;5033133;28;20510;-81
2022/09/27 05:40:16;;;;;;;6.30;1.40;;;8.90;99.90;;;;;;5062467;28;20043;-82
2022/09/27 05:42:42;;;;;;;9.35;1.95;;;8.90;99.90;;;;;;5058654;28;20028;-82
2022/09/27 05:45:08;;;;;;;3.30;0.90;;;8.90;99.90;;;;;;5082165;28;20109;-82
2022/09/27 05:47:34;;;;;;;2.47;0.75;;;8.90;99.90;;;;;;5078870;28;20358;-81
2022/09/27 05:50:00;;;;;;;4.00;1.20;;;9.30;99.90;;;;;;5064669;28;20162;-81
2022/09/27 05:52:25;;;;;;;5.05;0.80;;;8.90;99.90;;;;;;5083315;28;20032;-80
2022/09/27 05:54:51;;;;;;;5.07;1.17;;;8.80;99.90;;;;;;5067258;28;20488;-81
2022/09/27 05:57:17;;;;;;;2.78;0.95;;;8.80;99.90;;;;;;5051599;28;20472;-81
2022/09/27 05:59:42;;;;;;;4.90;0.80;;;8.90;99.90;;;;;;5031896;28;20083;-82
2022/09/27 06:02:10;;;;;;;2.65;0.98;;;8.80;99.90;;;;;;5084559;28;20028;-81
2022/09/27 06:04:36;;;;;;;3.97;0.90;;;8.80;99.90;;;;;;5067857;28;20040;-82
2022/09/27 06:07:01;;;;;;;3.92;1.20;;;8.90;99.90;;;;;;5050870;28;20051;-82
2022/09/27 06:09:28;;;;;;;4.90;1.02;;;8.90;99.90;;;;;;5084415;28;20048;-82
2022/09/27 06:11:53;;;;;;;3.33;0.90;;;8.90;99.90;;;;;;5083567;28;20040;-82
2022/09/27 06:14:19;;;;;;;3.95;0.70;;;8.90;99.90;;;;;;5067191;28;20058;-83
2022/09/27 06:16:45;;;;;;;2.45;0.70;;;8.90;99.90;;;;;;5084640;28;20044;-82
2022/09/27 06:19:11;;;;;;;5.15;1.10;;;9.00;99.90;;;;;;5083110;28;20048;-83
2022/09/27 06:21:37;;;;;;;4.05;1.00;;;9.00;99.90;;;;;;5101240;28;20062;-83
2022/09/27 06:24:03;;;;;;;4.40;1.00;;;9.40;99.90;;;;;;5056898;28;20035;-83
2022/09/27 06:26:29;;;;;;;6.45;0.80;;;9.00;99.90;;;;;;5070982;28;20039;-83
2022/09/27 06:28:55;;;;;;;4.47;0.80;;;9.10;99.90;;;;;;5083763;28;20047;-82
2022/09/27 06:31:21;;;;;;;3.22;0.68;;;9.50;99.90;;;;;;5067842;28;20032;-82
2022/09/27 06:33:48;;;;;;;2.58;0.50;;;9.10;99.90;;;;;;5067651;28;20058;-82
2022/09/27 06:36:14;;;;;;;3.60;0.52;;;9.30;99.90;;;;;;5061834;28;20055;-79
2022/09/27 06:38:39;;;;;;;1.85;0.50;;;9.30;99.90;;;;;;5062555;28;20100;-80
2022/09/27 06:41:06;;;;;;;2.55;0.47;;;9.40;99.90;;;;;;5074900;28;20047;-81
2022/09/27 06:43:33;;;;;;;2.05;0.50;;;9.40;99.90;;;;;;5047677;28;20050;-79
2022/09/27 06:46:05;;;;;;;1.38;0.40;;;9.50;99.90;;;;;;5062992;28;20047;-79
2022/09/27 06:48:36;;;;;;;3.55;0.40;;;9.50;99.90;;;;;;5030689;28;20056;-80
2022/09/27 06:51:02;;;;;;;1.92;0.57;;;9.60;99.90;;;;;;5057005;28;20500;-80
2022/09/27 06:53:28;;;;;;;0.93;0.47;;;9.60;99.90;;;;;;5064644;28;20044;-80
2022/09/27 06:56:01;;;;;;;4.35;0.50;;;9.70;99.90;;;;;;5063195;28;20051;-79
2022/09/27 07:01:12;;;;;;;4.43;1.10;;;9.80;99.90;;;;;;5082167;28;20040;-80
2022/09/27 07:03:40;;;;;;;3.80;0.60;;;9.90;99.90;;;;;;5067476;28;20074;-80
2022/09/27 07:06:17;;;;;;;1.50;0.60;;;10.00;99.90;;;;;;5079659;28;20046;-80
2022/09/27 07:08:43;;;;;;;2.03;0.60;;;10.10;99.90;;;;;;5076561;28;20048;-80
2022/09/27 07:11:08;;;;;;;2.88;0.50;;;10.60;99.90;;;;;;5041556;28;20040;-79
2022/09/27 07:13:39;;;;;;;3.55;0.50;;;10.20;99.90;;;;;;5073740;28;20069;-81
2022/09/27 07:16:04;;;;;;;2.83;0.80;;;10.20;99.90;;;;;;5063315;28;20036;-80
2022/09/27 07:18:30;;;;;;;1.60;0.70;;;10.30;99.90;;;;;;5080540;28;20050;-80
2022/09/27 07:20:58;;;;;;;1.73;0.55;;;10.30;99.90;;;;;;5062672;28;20123;-80
2022/09/27 07:23:24;;;;;;;2.28;0.32;;;10.40;99.90;;;;;;5079435;28;20043;-79
2022/09/27 07:25:50;;;;;;;2.45;0.70;;;10.50;99.90;;;;;;5078358;28;20396;-79
2022/09/27 07:28:18;;;;;;;2.28;0.93;;;10.50;99.90;;;;;;5062543;28;20044;-80
2022/09/27 07:30:44;;;;;;;3.22;0.50;;;10.70;99.90;;;;;;5079360;28;20078;-80
2022/09/27 07:33:11;;;;;;;3.13;0.80;;;10.60;99.90;;;;;;5078595;28;20040;-79
2022/09/27 07:35:40;;;;;;;2.92;0.65;;;10.70;99.90;;;;;;5079495;28;20040;-79
2022/09/27 07:38:07;;;;;;;5.07;0.80;;;10.80;99.90;;;;;;5077831;28;20101;-80
2022/09/27 07:40:36;;;;;;;2.95;0.70;;;10.80;99.90;;;;;;5061804;28;20032;-80
2022/09/27 07:43:03;;;;;;;6.13;0.77;;;10.90;99.90;;;;;;5063611;28;20488;-81
2022/09/27 07:45:30;;;;;;;2.58;0.95;;;10.90;99.90;;;;;;5078340;28;20048;-80
2022/09/27 07:47:55;;;;;;;4.13;0.80;;;10.90;99.90;;;;;;5078795;28;20488;-80
2022/09/27 07:50:21;;;;;;;4.18;0.80;;;11.00;99.90;;;;;;5063004;28;20036;-80
2022/09/27 07:52:51;;;;;;;3.55;0.75;;;11.10;99.90;;;;;;5078790;28;20380;-80
2022/09/27 07:55:18;;;;;;;1.48;0.43;;;11.20;99.90;;;;;;5079955;28;20044;-80
2022/09/27 07:57:44;;;;;;;3.45;1.02;;;11.30;99.90;;;;;;5062874;28;20036;-80
2022/09/27 08:00:13;;;;;;;2.50;0.40;;;11.30;99.90;;;;;;5080326;28;20036;-80
2022/09/27 08:02:41;;;;;;;1.55;0.40;;;11.30;99.90;;;;;;5087362;28;20036;-80
2022/09/27 08:05:07;;;;;;;1.30;0.38;;;11.40;99.90;;;;;;5087229;28;20036;-80
2022/09/27 08:07:33;;;;;;;1.67;0.50;;;11.40;99.90;;;;;;5084995;28;20110;-80
2022/09/27 08:09:59;;;;;;;3.88;0.60;;;11.30;99.90;;;;;;5079493;28;20097;-80
2022/09/27 08:12:24;;;;;;;3.55;0.65;;;11.30;99.90;;;;;;5043504;28;20063;-81
2022/09/27 08:14:51;;;;;;;1.50;0.45;;;11.20;99.90;;;;;;5059598;28;20032;-80
2022/09/27 08:17:17;;;;;;;2.25;0.63;;;11.20;99.90;;;;;;5026500;28;20043;-80
2022/09/27 08:19:44;;;;;;;2.63;0.65;;;11.20;99.90;;;;;;5026227;28;20369;-80
2022/09/27 08:22:12;;;;;;;2.47;0.88;;;11.20;99.90;;;;;;5041862;28;20480;-79
2022/09/27 08:24:39;;;;;;;2.90;0.55;;;11.20;99.90;;;;;;5074802;28;20062;-79
2022/09/27 08:27:06;;;;;;;3.10;0.50;;;11.20;99.90;;;;;;5040275;28;20048;-80
2022/09/27 08:29:33;;;;;;;6.22;0.90;;;11.10;99.90;;;;;;5040805;28;20502;-79
2022/09/27 08:31:59;;;;;;;5.60;0.77;;;11.20;99.90;;;;;;5075418;28;20045;-80
2022/09/27 08:34:25;;;;;;;2.72;0.70;;;11.20;99.90;;;;;;5042018;28;20048;-80
2022/09/27 08:36:50;;;;;;;1.90;0.60;;;11.20;99.90;;;;;;5075476;28;20036;-80
2022/09/27 08:39:16;;;;;;;1.17;0.57;;;11.30;99.90;;;;;;5058092;28;20033;-80
2022/09/27 08:42:01;;;;;;;3.55;0.95;;;11.30;99.90;;;;;;5023726;28;20081;-80
2022/09/27 08:45:04;;;;;;;2.70;0.70;;;11.30;99.90;;;;;;5071026;28;20062;-80
2022/09/27 08:47:39;;;;;;;0.73;0.40;;;11.30;99.90;;;;;;5061152;28;20063;-80
2022/09/27 08:50:21;;;;;;;2.47;0.60;;;11.40;99.90;;;;;;5077511;28;20062;-80
2022/09/27 08:52:59;;;;;;;1.77;0.57;;;11.40;99.90;;;;;;5061982;28;20054;-80
2022/09/27 08:55:38;;;;;;;3.20;0.82;;;11.50;99.90;;;;;;5061596;28;20044;-80
2022/09/27 08:58:23;;;;;;;5.15;0.80;;;11.60;99.90;;;;;;5062709;28;20067;-80
2022/09/27 09:00:50;;;;;;;1.75;0.70;;;11.70;99.90;;;;;;5061664;28;20036;-80
2022/09/27 09:03:23;;;;;;;3.55;0.73;;;11.60;99.90;;;;;;5062339;28;20044;-80
2022/09/27 09:06:13;;;;;;;2.90;0.95;;;11.60;99.90;;;;;;5061997;28;20043;-79
2022/09/27 09:09:12;;;;;;;2.10;0.80;;;11.60;99.90;;;;;;5061258;28;20075;-79
2022/09/27 09:14:59;;;;;;;1.10;0.30;;;11.60;99.90;;;;;;5061668;28;20048;-80
2022/09/27 09:17:35;;;;;;;2.20;0.30;;;11.50;99.90;;;;;;5050315;28;20047;-79
2022/09/27 09:20:19;;;;;;;1.50;0.40;;;11.50;99.90;;;;;;5077555;28;20040;-80
2022/09/27 09:23:06;;;;;;;4.30;0.82;;;11.50;99.90;;;;;;5060396;28;20044;-80
2022/09/27 09:25:47;;;;;;;2.33;0.57;;;11.50;99.90;;;;;;5040974;28;20098;-80
2022/09/27 09:28:47;;;;;;;2.13;0.77;;;11.50;99.90;;;;;;5052790;28;20127;-80
2022/09/27 09:31:19;;;;;;;2.17;0.70;;;11.50;99.90;;;;;;5076535;28;20040;-80
2022/09/27 09:33:51;;;;;;;1.92;0.75;;;11.50;99.90;;;;;;5077265;28;20040;-79
2022/09/27 09:36:31;;;;;;;3.65;0.50;;;11.50;99.90;;;;;;5057979;28;20044;-79
2022/09/27 09:39:21;;;;;;;1.20;0.50;;;11.60;99.90;;;;;;5058085;28;20051;-79
2022/09/27 09:42:08;;;;;;;1.90;0.55;;;11.60;99.90;;;;;;5072406;28;20036;-80
2022/09/27 09:44:40;;;;;;;2.15;0.60;;;11.60;99.90;;;;;;5060394;28;20496;-79
2022/09/27 09:47:25;;;;;;;3.88;0.65;;;11.60;99.90;;;;;;5059949;28;20055;-79
2022/09/27 09:49:56;;;;;;;2.22;0.50;;;11.60;99.90;;;;;;5076762;28;20047;-79
2022/09/27 09:52:25;;;;;;;3.58;0.60;;;11.60;99.90;;;;;;5094234;28;20032;-80
2022/09/27 09:55:02;;;;;;;1.85;0.60;;;11.70;99.90;;;;;;5059201;28;20035;-78
2022/09/27 09:57:38;;;;;;;2.03;0.70;;;11.70;99.90;;;;;;5075545;28;20047;-79
2022/09/27 10:00:17;;;;;;;8.20;0.95;;;11.80;99.90;;;;;;5056269;28;20033;-79
2022/09/27 10:02:45;;;;;;;3.25;0.60;;;11.90;99.90;;;;;;5051306;28;20043;-79
2022/09/27 10:05:20;;;;;;;1.17;0.30;;;12.00;99.90;;;;;;5054135;28;20098;-80
2022/09/27 10:07:49;;;;;;;3.10;0.73;;;12.00;99.90;;;;;;5039455;28;20477;-80
2022/09/27 10:10:18;;;;;;;3.05;0.52;;;12.10;99.90;;;;;;5056410;28;20048;-79
2022/09/27 10:12:45;;;;;;;2.08;0.60;;;12.10;99.90;;;;;;5059473;28;20091;-80
2022/09/27 10:15:17;;;;;;;1.38;0.70;;;12.10;99.90;;;;;;5074471;28;20115;-80
2022/09/27 10:17:49;;;;;;;2.53;0.60;;;12.20;99.90;;;;;;5076134;28;20028;-80
2022/09/27 10:20:30;;;;;;;1.25;0.68;;;12.30;99.90;;;;;;5058150;28;20028;-80
2022/09/27 10:23:15;;;;;;;2.65;0.38;;;12.30;99.90;;;;;;5056397;28;20097;-80
2022/09/27 10:26:02;;;;;;;2.08;0.55;;;12.30;99.90;;;;;;5073573;28;20047;-80
2022/09/27 10:28:49;;;;;;;0.80;0.38;;;12.20;99.90;;;;;;5060640;28;20043;-80
2022/09/27 10:31:19;;;;;;;2.28;0.50;;;12.20;99.90;;;;;;5060709;28;20487;-80
2022/09/27 10:33:55;;;;;;;1.50;0.50;;;12.20;99.90;;;;;;5074378;28;20450;-81
2022/09/27 10:36:30;;;;;;;1.55;0.40;;;12.00;99.90;;;;;;5077756;28;20058;-80
2022/09/27 10:38:59;;;;;;;2.35;0.22;;;11.70;99.90;;;;;;5076295;28;20063;-79
2022/09/27 10:41:34;;;;;;;1.95;0.60;;;11.50;99.90;;;;;;5079442;28;20097;-78
2022/09/27 10:44:15;;;;;;;0.60;0.20;;;11.30;99.90;;;;;;5078772;28;20063;-78
2022/09/27 10:46:50;;;;;;;1.17;0.20;;;11.10;99.90;;;;;;5071692;28;20174;-78
2022/09/27 10:49:30;;;;;;;0.65;0.30;;;11.10;99.90;;;;;;5079176;28;20073;-79
2022/09/27 10:52:02;;;;;;;3.45;0.30;;;11.10;99.90;;;;;;5062639;28;20070;-79
2022/09/27 10:54:38;;;;;;;1.50;0.38;;;11.10;99.90;;;;;;5078150;28;20040;-79
2022/09/27 10:57:13;;;;;;;2.13;0.22;;;11.20;99.90;;;;;;5076927;28;20040;-78
2022/09/27 10:59:41;;;;;;;0.85;0.30;;;11.20;99.90;;;;;;5077987;28;20058;-78
2022/09/27 11:02:28;;;;;;;2.17;0.30;;;11.30;99.90;;;;;;5076744;28;20054;-80
2022/09/27 11:05:06;;;;;;;;;;;11.40;99.90;;;;;;5061152;28;20040;-79
2022/09/27 11:07:36;;;;;;;1.10;0.28;;;11.40;99.90;;;;;;5079783;28;19924;-79
2022/09/27 11:10:21;;;;;;;1.20;0.88;;;11.50;99.90;;;;;;5076581;28;20050;-80
2022/09/27 11:13:15;;;;;;;1.33;0.28;;;11.50;99.90;;;;;;5064484;28;20118;-79
2022/09/27 11:16:18;;;;;;;0.60;0.30;;;11.50;99.90;;;;;;5060096;28;20044;-78
2022/09/27 11:18:51;;;;;;;1.00;0.20;;;11.60;99.90;;;;;;5067487;28;20036;-78
2022/09/27 11:21:17;;;;;;;2.13;0.60;;;11.60;99.90;;;;;;5076984;28;20047;-79
2022/09/27 11:23:55;;;;;;;1.23;0.50;;;11.60;99.90;;;;;;5077678;28;20028;-80
2022/09/27 11:26:51;;;;;;;2.10;0.80;;;11.60;99.90;;;;;;5078706;28;20048;-79
2022/09/27 11:29:21;;;;;;;2.22;0.70;;;11.60;99.90;;;;;;5078156;28;20079;-78
2022/09/27 11:31:56;;;;;;;1.65;0.60;;;11.70;99.90;;;;;;5077688;28;20067;-78
2022/09/27 11:34:33;;;;;;;1.55;0.52;;;11.70;99.90;;;;;;5078051;28;20040;-78
2022/09/27 11:37:10;;;;;;;0.80;0.40;;;11.70;99.90;;;;;;5059730;28;20048;-79
2022/09/27 11:40:13;;;;;;;4.50;0.85;;;11.80;99.90;;;;;;5077874;28;20064;-79
2022/09/27 11:43:18;;;;;;;2.55;0.65;;;11.90;99.90;;;;;;5078025;28;20032;-79
2022/09/27 11:45:47;;;;;;;1.45;0.50;;;12.00;99.90;;;;;;5077062;28;20420;-79
2022/09/27 11:48:48;;;;;;;3.83;0.55;;;12.10;99.90;;;;;;5079633;28;20040;-80
2022/09/27 11:51:56;;;;;;;4.25;0.82;;;12.10;99.90;;;;;;5076019;28;20048;-80
2022/09/27 11:54:40;;;;;;;;;;;12.20;99.90;;;;;;5062265;28;20056;-79
2022/09/27 11:57:17;;;;;;;3.15;0.60;;;12.20;99.90;;;;;;5072197;28;20101;-80
2022/09/27 12:00:09;;;;;;;2.55;0.50;;;12.20;99.90;;;;;;5071259;28;20045;-80
2022/09/27 12:03:06;;;;;;;3.03;0.60;;;12.30;99.90;;;;;;5072602;28;20040;-80
2022/09/27 12:05:47;;;;;;;2.00;0.52;;;12.40;99.90;;;;;;5074211;28;20111;-80
2022/09/27 12:08:28;;;;;;;1.63;0.43;;;12.50;99.90;;;;;;5061665;28;20508;-78
2022/09/27 12:11:03;;;;;;;3.00;0.85;;;12.50;99.90;;;;;;5067892;28;20622;-79
2022/09/27 12:13:38;;;;;;;2.17;0.43;;;12.60;99.90;;;;;;5073458;28;20043;-79
2022/09/27 12:16:05;;;;;;;2.63;0.60;;;12.60;99.90;;;;;;5072266;28;20036;-79
2022/09/27 12:18:37;;;;;;;3.60;0.55;;;12.70;99.90;;;;;;5041282;28;20499;-80
2022/09/27 12:21:06;;;;;;;3.67;0.50;;;12.70;99.90;;;;;;5060290;28;20047;-78
2022/09/27 12:23:55;;;;;;;1.73;0.32;;;12.70;99.90;;;;;;5075064;28;20059;-80
2022/09/27 12:26:37;;;;;;;5.00;0.80;;;12.80;99.90;;;;;;5047759;28;20044;-80
2022/09/27 12:29:22;;;;;;;4.13;0.80;;;12.80;99.90;;;;;;5061057;28;20395;-80
2022/09/27 12:32:12;;;;;;;2.75;0.68;;;12.80;99.90;;;;;;5076581;28;20067;-80
2022/09/27 12:34:55;;;;;;;2.15;0.52;;;12.80;99.90;;;;;;5064601;28;20044;-80
2022/09/27 12:37:44;;;;;;;3.38;0.70;;;12.70;99.90;;;;;;5073883;28;20039;-80
2022/09/27 12:40:30;;;;;;;3.03;0.80;;;12.60;99.90;;;;;;5078103;28;20047;-81
2022/09/27 12:43:19;;;;;;;3.20;0.70;;;12.40;99.90;;;;;;5060365;28;20071;-82
2022/09/27 12:45:59;;;;;;;4.43;0.75;;;12.20;99.90;;;;;;5059226;28;20399;-82
2022/09/27 12:48:50;;;;;;;4.82;0.95;;;12.00;99.90;;;;;;5056505;28;20093;-82
2022/09/27 12:51:19;;;;;;;3.85;0.77;;;12.10;99.90;;;;;;5059312;28;20422;-82
2022/09/27 12:54:07;;;;;;;2.95;1.02;;;11.60;99.90;;;;;;5059432;28;20091;-82
2022/09/27 12:56:50;;;;;;;2.63;0.77;;;11.60;99.90;;;;;;5059795;28;20048;-82
2022/09/27 12:59:42;;;;;;;4.32;1.30;;;11.60;99.90;;;;;;5052133;28;20572;-81
2022/09/27 13:02:42;;;;;;;2.53;0.60;;;11.60;99.90;;;;;;5028993;28;20048;-82
2022/09/27 13:05:08;;;;;;;2.75;0.80;;;11.60;99.90;;;;;;5076208;28;20043;-82
2022/09/27 13:07:34;;;;;;;3.70;0.90;;;11.60;99.90;;;;;;5072717;28;20039;-81
2022/09/27 13:10:09;;;;;;;5.07;0.85;;;11.70;99.90;;;;;;5042372;28;20041;-81
2022/09/27 13:12:37;;;;;;;3.97;0.88;;;11.70;99.90;;;;;;5059067;28;20047;-81
2022/09/27 13:15:27;;;;;;;1.98;0.80;;;11.60;99.90;;;;;;5058193;28;20036;-81
2022/09/27 13:17:55;;;;;;;1.80;0.30;;;11.60;99.90;;;;;;5078085;28;20058;-81
2022/09/27 13:20:30;;;;;;;1.85;0.30;;;11.40;99.90;;;;;;5071332;28;20115;-81
2022/09/27 13:22:57;;;;;;;1.13;0.22;;;11.30;99.90;;;;;;5075951;28;20040;-81
2022/09/27 13:25:52;;;;;;;1.58;0.40;;;11.20;99.90;;;;;;5062339;28;20527;-81